Time;durP1;ratioP1;P1;durP2;ratioP2;P2;SDS_P1;SDS_P2;PMS_P1;PMS_P2;Temp;Humidity;BMP_temperature;BMP_pressure;BME280_temperature;BME280_humidity;BME280_pressure;Samples;Min_cycle;Max_cycle;Signal;HPM_P1;HPM_P2
2022/05/30 05:21:58;;;;;;;1.70;1.50;;;;;;;;;;6224169;22;20270;-74
2022/05/30 05:24:24;;;;;;;1.83;1.70;;;;;;;;;;6246256;23;20292;-76
2022/05/30 05:26:50;;;;;;;3.97;1.60;;;;;;;;;;6216419;23;20078;-77
2022/05/30 05:29:17;;;;;;;1.60;1.50;;;;;;;;;;6216397;23;20008;-85
2022/05/30 05:31:43;;;;;;;1.95;1.70;;;;;;;;;;6216614;23;20020;-78
2022/05/30 05:34:11;;;;;;;2.63;1.50;;;;;;;;;;6216682;23;20005;-78
2022/05/30 05:36:42;;;;;;;1.60;1.50;;;;;;;;;;6217201;23;20090;-83
2022/05/30 05:39:09;;;;;;;1.95;1.75;;;;;;;;;;6217412;23;20005;-82
2022/05/30 05:41:35;;;;;;;1.55;1.35;;;;;;;;;;6216695;23;20390;-79
2022/05/30 05:44:01;;;;;;;1.83;1.35;;;;;;;;;;6216816;23;20005;-80
2022/05/30 05:46:29;;;;;;;2.08;1.55;;;;;;;;;;6216121;23;20027;-79
2022/05/30 05:48:56;;;;;;;1.75;1.65;;;;;;;;;;6216485;23;20309;-77
2022/05/30 05:51:23;;;;;;;4.28;1.50;;;;;;;;;;6215571;23;20084;-77
2022/05/30 05:53:49;;;;;;;3.08;1.55;;;;;;;;;;6216308;23;20363;-78
2022/05/30 05:56:17;;;;;;;1.73;1.25;;;;;;;;;;6216119;23;20000;-79
2022/05/30 05:58:42;;;;;;;2.30;1.90;;;;;;;;;;6216387;23;20001;-82
2022/05/30 06:01:09;;;;;;;2.10;1.40;;;;;;;;;;6216646;23;20024;-79
2022/05/30 06:03:35;;;;;;;2.33;1.58;;;;;;;;;;6216630;23;20008;-78
2022/05/30 06:06:01;;;;;;;2.00;1.20;;;;;;;;;;6216511;23;20035;-77
2022/05/30 06:08:27;;;;;;;1.70;1.30;;;;;;;;;;6216387;23;20000;-78
2022/05/30 06:11:05;;;;;;;1.85;1.52;;;;;;;;;;6216228;23;20012;-79
2022/05/30 06:13:40;;;;;;;1.48;1.38;;;;;;;;;;6216540;23;20005;-76
2022/05/30 08:29:49;;;;;;;2.13;1.38;;;;;;;;;;6287345;22;20016;-87
2022/05/30 08:32:15;;;;;;;2.45;1.60;;;;;;;;;;6250741;23;20061;-80
2022/05/30 08:34:42;;;;;;;2.42;1.45;;;;;;;;;;6249265;23;20007;-84
2022/05/30 08:37:09;;;;;;;1.33;1.27;;;;;;;;;;6270769;22;20016;-81
2022/05/30 08:42:28;;;;;;;2.17;1.60;;;;;;;;;;6278232;22;20434;-82
2022/05/30 08:44:55;;;;;;;1.88;1.35;;;;;;;;;;6278267;22;20000;-77
2022/05/30 08:47:46;;;;;;;2.40;1.55;;;;;;;;;;6277655;22;20442;-86
2022/05/30 08:50:39;;;;;;;1.60;1.50;;;;;;;;;;6270446;22;20034;-81
2022/05/30 08:53:23;;;;;;;2.40;1.33;;;;;;;;;;6278060;22;20061;-85
2022/05/30 08:56:04;;;;;;;1.55;1.42;;;;;;;;;;6250565;22;20304;-82
2022/05/30 08:58:36;;;;;;;2.38;1.40;;;;;;;;;;6278015;22;20061;-81
2022/05/30 09:01:07;;;;;;;1.10;1.10;;;;;;;;;;6277691;22;20011;-82
2022/05/30 09:04:06;;;;;;;1.77;1.05;;;;;;;;;;6277947;22;20006;-83
2022/05/30 09:06:34;;;;;;;1.38;1.27;;;;;;;;;;6277973;22;20042;-84
2022/05/30 09:09:08;;;;;;;2.30;1.10;;;;;;;;;;6278006;22;20411;-81
2022/05/30 09:11:44;;;;;;;1.20;1.10;;;;;;;;;;6277772;22;20085;-80
2022/05/30 09:14:18;;;;;;;1.83;1.30;;;;;;;;;;6277640;22;20071;-79
2022/05/30 09:16:55;;;;;;;2.10;1.20;;;;;;;;;;6277616;22;19996;-80
2022/05/30 09:19:24;;;;;;;1.95;1.35;;;;;;;;;;6278069;22;20354;-80
2022/05/30 09:21:53;;;;;;;1.42;1.33;;;;;;;;;;6278008;22;20011;-80
2022/05/30 09:24:19;;;;;;;1.50;1.40;;;;;;;;;;6277699;22;20007;-80
2022/05/30 09:26:45;;;;;;;2.30;1.45;;;;;;;;;;6277797;22;19999;-80
2022/05/30 09:29:18;;;;;;;1.45;1.30;;;;;;;;;;6280175;22;20004;-80
2022/05/30 09:31:55;;;;;;;1.38;1.27;;;;;;;;;;6308758;22;20370;-80
2022/05/30 09:34:39;;;;;;;1.40;1.30;;;;;;;;;;6281254;22;20003;-85
2022/05/30 09:37:05;;;;;;;2.65;1.35;;;;;;;;;;6308739;22;20003;-82
2022/05/30 09:39:46;;;;;;;1.90;1.48;;;;;;;;;;6313543;22;19999;-78
2022/05/30 09:42:30;;;;;;;1.38;1.27;;;;;;;;;;6310704;22;20007;-84
2022/05/30 09:45:20;;;;;;;2.65;1.60;;;;;;;;;;6308469;22;20394;-81
2022/05/30 09:48:09;;;;;;;3.83;1.33;;;;;;;;;;6307094;22;20007;-79
2022/05/30 09:50:42;;;;;;;2.65;1.58;;;;;;;;;;6308908;22;20011;-80
2022/05/30 09:53:09;;;;;;;1.90;1.50;;;;;;;;;;6308412;22;20062;-80
2022/05/30 09:55:49;;;;;;;1.65;1.55;;;;;;;;;;6308452;22;20068;-81
2022/05/30 09:58:15;;;;;;;1.88;1.23;;;;;;;;;;6308524;22;20003;-80
2022/05/30 10:00:57;;;;;;;2.72;1.45;;;;;;;;;;6308654;22;20005;-81
2022/05/30 10:03:38;;;;;;;1.92;1.75;;;;;;;;;;6308996;22;20010;-81
2022/05/30 10:06:18;;;;;;;2.00;1.60;;;;;;;;;;6280548;22;20367;-82
2022/05/30 10:08:46;;;;;;;2.08;1.35;;;;;;;;;;6308157;22;20414;-82
2022/05/30 10:11:30;;;;;;;1.85;1.63;;;;;;;;;;6308345;22;20035;-81
2022/05/30 10:13:55;;;;;;;2.08;1.70;;;;;;;;;;6308424;22;20368;-80
2022/05/30 10:16:33;;;;;;;1.67;1.30;;;;;;;;;;6308230;22;20003;-83
2022/05/30 10:19:03;;;;;;;1.73;1.63;;;;;;;;;;6280719;22;20015;-82
2022/05/30 10:28:14;;;;;;;1.70;1.55;;;;;;;;;;6307677;22;20070;-85
2022/05/30 10:30:48;;;;;;;2.17;1.65;;;;;;;;;;6307757;22;20049;-78
2022/05/30 10:33:40;;;;;;;2.50;1.75;;;;;;;;;;6308085;22;20006;-78
2022/05/30 10:36:50;;;;;;;2.00;1.90;;;;;;;;;;6307842;22;20004;-79
2022/05/30 10:39:46;;;;;;;1.85;1.75;;;;;;;;;;6153986;23;20014;-80
2022/05/30 10:42:27;;;;;;;1.83;1.73;;;;;;;;;;6301462;22;20037;-79
2022/05/30 10:45:01;;;;;;;2.17;2.08;;;;;;;;;;6307985;22;20011;-86
2022/05/30 10:47:48;;;;;;;2.22;1.80;;;;;;;;;;6280694;22;20007;-81
2022/05/30 10:50:52;;;;;;;2.00;1.90;;;;;;;;;;6307496;22;20074;-82
2022/05/30 10:53:33;;;;;;;2.78;2.47;;;;;;;;;;6305344;22;20917;-88
2022/05/30 10:56:06;;;;;;;3.15;2.30;;;;;;;;;;6307411;22;20033;-85
2022/05/30 10:58:41;;;;;;;2.60;2.38;;;;;;;;;;6307656;22;20373;-83
2022/05/30 11:01:12;;;;;;;3.22;1.83;;;;;;;;;;6307721;22;19999;-81
2022/05/30 11:03:50;;;;;;;3.08;2.20;;;;;;;;;;6307548;22;20030;-81
2022/05/30 11:06:30;;;;;;;3.65;2.70;;;;;;;;;;6307957;22;20007;-79
2022/05/30 11:09:01;;;;;;;2.85;2.60;;;;;;;;;;6307513;22;20006;-79
2022/05/30 11:11:43;;;;;;;2.45;2.25;;;;;;;;;;6308622;22;20335;-79
2022/05/30 11:15:05;;;;;;;2.30;2.10;;;;;;;;;;6309688;22;20007;-78
2022/05/30 11:17:40;;;;;;;1.80;1.70;;;;;;;;;;6155404;23;20009;-79
2022/05/30 11:20:11;;;;;;;2.00;1.85;;;;;;;;;;6156880;23;20005;-80
2022/05/30 11:22:42;;;;;;;2.35;2.10;;;;;;;;;;6258524;22;20078;-80
2022/05/30 11:25:36;;;;;;;3.90;2.80;;;;;;;;;;6310850;22;20014;-80
2022/05/30 11:28:16;;;;;;;5.10;3.28;;;;;;;;;;6246051;22;20007;-79
2022/05/30 11:31:00;;;;;;;4.28;3.88;;;;;;;;;;6309061;22;20019;-79
2022/05/30 11:33:52;;;;;;;4.32;3.92;;;;;;;;;;6309336;22;20034;-76
2022/05/30 11:36:29;;;;;;;4.70;3.63;;;;;;;;;;6309543;22;20116;-78
2022/05/30 11:39:13;;;;;;;3.92;3.42;;;;;;;;;;6310027;22;19999;-79
2022/05/30 11:41:55;;;;;;;3.30;2.60;;;;;;;;;;6309856;22;19999;-79
2022/05/30 11:44:39;;;;;;;1.80;1.70;;;;;;;;;;6309769;22;20003;-80
2022/05/30 11:47:14;;;;;;;1.75;1.65;;;;;;;;;;6309792;22;20061;-77
2022/05/30 11:49:58;;;;;;;3.60;1.60;;;;;;;;;;6309591;22;20006;-77
2022/05/30 16:58:15;;;;;;;1.70;1.60;;;;;;;;;;6302430;22;20549;-75
2022/05/30 17:00:41;;;;;;;1.92;1.83;;;;;;;;;;6281678;22;20052;-74
2022/05/30 17:03:07;;;;;;;3.10;1.38;;;;;;;;;;6308928;22;20322;-76
2022/05/30 17:05:36;;;;;;;3.38;2.08;;;;;;;;;;6288902;22;20035;-77
2022/05/30 17:08:03;;;;;;;2.33;2.10;;;;;;;;;;6277955;22;20026;-74
2022/05/30 17:10:29;;;;;;;6.07;4.57;;;;;;;;;;6277559;22;20020;-76
2022/05/30 17:12:55;;;;;;;6.80;5.45;;;;;;;;;;6277809;22;19995;-75
2022/05/30 17:15:21;;;;;;;3.22;2.45;;;;;;;;;;6277816;22;20000;-74
2022/05/30 17:17:48;;;;;;;6.68;4.80;;;;;;;;;;6277966;22;20010;-75
2022/05/30 17:20:30;;;;;;;8.68;4.35;;;;;;;;;;6277751;22;20000;-78
2022/05/30 17:22:56;;;;;;;3.17;2.75;;;;;;;;;;6277762;22;20026;-74
2022/05/30 17:25:25;;;;;;;4.13;2.45;;;;;;;;;;6277762;22;20398;-76
2022/05/30 17:30:35;;;;;;;3.17;2.10;;;;;;;;;;6277384;22;20019;-76
2022/05/30 17:33:01;;;;;;;3.13;2.35;;;;;;;;;;6277389;22;20007;-75
2022/05/30 17:35:26;;;;;;;2.22;2.00;;;;;;;;;;6277455;22;20357;-75
2022/05/30 17:37:52;;;;;;;3.08;2.10;;;;;;;;;;6277408;22;20004;-76
2022/05/30 17:40:17;;;;;;;2.65;2.30;;;;;;;;;;6277405;22;20007;-75
2022/05/30 17:42:43;;;;;;;2.83;2.17;;;;;;;;;;6277421;22;20000;-81
2022/05/30 17:45:08;;;;;;;3.13;1.90;;;;;;;;;;6277155;22;20110;-76
2022/05/30 17:47:48;;;;;;;4.32;2.20;;;;;;;;;;6277360;22;20007;-76
2022/05/30 17:50:15;;;;;;;;;;;;;;;;;;6278241;22;20091;-76
2022/05/30 17:52:43;;;;;;;3.85;1.80;;;;;;;;;;6277572;22;19911;-75
2022/05/30 17:55:12;;;;;;;2.77;2.07;;;;;;;;;;6277423;22;20004;-78
2022/05/30 17:57:38;;;;;;;2.93;2.03;;;;;;;;;;6277393;22;20004;-75
2022/05/30 18:00:07;;;;;;;1.98;1.77;;;;;;;;;;6277296;22;20225;-74
2022/05/30 18:02:32;;;;;;;5.47;2.20;;;;;;;;;;6277446;22;20083;-79
2022/05/30 18:04:59;;;;;;;2.53;1.77;;;;;;;;;;6250075;22;20027;-78
2022/05/30 18:07:24;;;;;;;2.90;1.98;;;;;;;;;;6277486;22;20431;-81
2022/05/30 18:10:08;;;;;;;2.47;1.60;;;;;;;;;;6249926;22;20007;-79
2022/05/30 18:12:55;;;;;;;1.73;1.63;;;;;;;;;;6277332;22;20007;-80
2022/05/30 18:15:48;;;;;;;3.15;2.20;;;;;;;;;;6277161;22;20079;-79
2022/05/30 18:21:12;;;;;;;2.60;1.90;;;;;;;;;;6277298;22;20065;-76
2022/05/30 18:23:52;;;;;;;3.08;1.70;;;;;;;;;;6277298;22;20006;-82
2022/05/30 18:26:18;;;;;;;2.58;1.67;;;;;;;;;;6249951;22;20011;-79
2022/05/30 18:28:44;;;;;;;3.58;1.83;;;;;;;;;;6275911;22;20004;-75
2022/05/30 18:31:17;;;;;;;2.90;2.10;;;;;;;;;;6276722;22;20011;-74
2022/05/30 18:33:46;;;;;;;1.77;1.67;;;;;;;;;;6276875;22;20327;-73
2022/05/30 18:36:39;;;;;;;4.45;1.83;;;;;;;;;;6276694;22;20053;-74
2022/05/30 18:39:21;;;;;;;2.33;1.63;;;;;;;;;;6276823;22;20008;-79
2022/05/30 18:42:02;;;;;;;2.97;1.83;;;;;;;;;;6276716;22;20075;-74
2022/05/30 18:44:33;;;;;;;3.63;2.10;;;;;;;;;;6276905;22;20411;-72
2022/05/30 18:47:08;;;;;;;2.63;1.80;;;;;;;;;;6276868;22;20327;-71
2022/05/30 18:49:39;;;;;;;3.22;1.95;;;;;;;;;;6276700;22;20104;-74
2022/05/30 18:52:05;;;;;;;2.60;1.75;;;;;;;;;;6277054;22;20078;-75
2022/05/30 18:54:32;;;;;;;4.97;1.80;;;;;;;;;;6249454;22;20004;-73
2022/05/30 18:57:08;;;;;;;2.55;1.92;;;;;;;;;;6276878;22;20342;-73
2022/05/30 18:59:52;;;;;;;3.55;2.28;;;;;;;;;;6276335;22;20019;-72
2022/05/30 19:02:21;;;;;;;3.08;1.80;;;;;;;;;;6276848;22;20023;-76
2022/05/30 19:04:46;;;;;;;1.73;1.60;;;;;;;;;;6276437;22;20320;-73
2022/05/30 19:07:12;;;;;;;2.03;1.80;;;;;;;;;;6277020;22;20015;-73
2022/05/30 19:09:38;;;;;;;5.15;2.08;;;;;;;;;;6276750;22;20418;-81
2022/05/30 19:12:07;;;;;;;2.45;1.85;;;;;;;;;;6276690;22;20007;-75
2022/05/30 19:17:21;;;;;;;2.85;1.77;;;;;;;;;;6276575;22;20026;-77
2022/05/30 19:17:40;;;;;;;1.77;1.50;;;;;;;;;;6276406;22;20018;-74
2022/05/30 19:20:15;;;;;;;3.40;1.70;;;;;;;;;;6277052;22;20381;-75
2022/05/30 19:22:51;;;;;;;2.83;1.80;;;;;;;;;;6276621;22;20030;-74
2022/05/30 19:25:23;;;;;;;4.07;1.48;;;;;;;;;;6276616;22;20000;-74
2022/05/30 19:27:52;;;;;;;5.75;1.80;;;;;;;;;;6276483;22;20046;-80
2022/05/30 19:30:22;;;;;;;4.35;1.75;;;;;;;;;;6276626;22;20000;-79
2022/05/30 19:32:49;;;;;;;1.92;1.77;;;;;;;;;;6277623;22;20122;-75
2022/05/30 19:35:14;;;;;;;3.03;1.60;;;;;;;;;;6277805;22;20045;-75
2022/05/30 19:37:40;;;;;;;3.33;2.17;;;;;;;;;;6277426;22;20007;-77
2022/05/30 19:40:07;;;;;;;4.90;1.83;;;;;;;;;;6277968;22;20008;-76
2022/05/30 19:42:36;;;;;;;3.75;2.08;;;;;;;;;;6277993;22;19999;-76
2022/05/30 19:45:05;;;;;;;2.42;2.00;;;;;;;;;;6278248;22;20011;-82
2022/05/30 19:47:31;;;;;;;2.97;1.90;;;;;;;;;;6278222;22;19999;-75
2022/05/30 19:49:57;;;;;;;3.13;2.00;;;;;;;;;;6251757;22;20026;-81
2022/05/30 19:52:25;;;;;;;3.67;2.13;;;;;;;;;;6280508;22;20004;-80
2022/05/30 19:54:54;;;;;;;2.28;1.73;;;;;;;;;;6253341;22;20007;-81
2022/05/30 19:57:21;;;;;;;2.50;1.70;;;;;;;;;;6279095;22;20039;-78
2022/05/30 19:59:46;;;;;;;2.17;1.70;;;;;;;;;;6278664;22;20043;-75
2022/05/30 20:02:12;;;;;;;2.50;2.03;;;;;;;;;;6279004;22;20004;-77
2022/05/30 20:04:37;;;;;;;2.90;2.58;;;;;;;;;;6278965;22;20000;-77
2022/05/30 20:07:11;;;;;;;2.38;2.03;;;;;;;;;;6280618;22;20004;-79
2022/05/30 20:09:36;;;;;;;5.25;2.50;;;;;;;;;;6285485;22;20373;-81
2022/05/30 20:12:02;;;;;;;3.80;2.30;;;;;;;;;;6282861;22;20004;-89
2022/05/30 20:14:28;;;;;;;4.75;2.45;;;;;;;;;;6285286;22;20010;-89
2022/05/30 20:16:55;;;;;;;4.47;2.60;;;;;;;;;;6283704;22;20004;-85
2022/05/30 20:19:21;;;;;;;5.13;2.35;;;;;;;;;;6284060;22;20374;-91
2022/05/30 20:21:49;;;;;;;2.97;2.30;;;;;;;;;;6284565;22;20007;-82
2022/05/30 20:24:15;;;;;;;3.90;2.85;;;;;;;;;;6284435;22;20004;-84
2022/05/30 20:26:42;;;;;;;3.30;2.58;;;;;;;;;;6286373;22;20026;-88
2022/05/30 20:29:13;;;;;;;3.30;2.63;;;;;;;;;;6260226;22;20064;-77
2022/05/30 20:31:43;;;;;;;2.63;2.22;;;;;;;;;;6284586;22;20008;-78
2022/05/30 20:34:18;;;;;;;3.38;2.47;;;;;;;;;;6266170;22;20029;-80
2022/05/30 20:36:43;;;;;;;3.13;2.30;;;;;;;;;;6255954;22;20003;-86
2022/05/30 20:39:09;;;;;;;3.53;2.10;;;;;;;;;;6288133;22;20080;-92
2022/05/30 20:44:18;;;;;;;3.25;2.25;;;;;;;;;;6282983;22;20011;-81
2022/05/30 20:46:44;;;;;;;3.75;2.30;;;;;;;;;;6279472;22;20346;-76
2022/05/30 20:49:10;;;;;;;2.67;1.95;;;;;;;;;;6252851;22;20397;-90
2022/05/30 20:51:35;;;;;;;3.40;2.30;;;;;;;;;;6280507;22;20007;-84
2022/05/30 20:54:01;;;;;;;2.58;2.10;;;;;;;;;;6280659;22;20085;-87
2022/05/30 20:56:26;;;;;;;2.78;2.30;;;;;;;;;;6280923;22;20022;-92
2022/05/30 20:58:52;;;;;;;2.35;1.80;;;;;;;;;;6281188;22;20012;-91
2022/05/30 21:01:18;;;;;;;2.78;2.08;;;;;;;;;;6282728;22;20078;-86
2022/05/30 21:03:45;;;;;;;1.85;1.67;;;;;;;;;;6281171;22;20019;-84
2022/05/30 21:06:13;;;;;;;1.70;1.60;;;;;;;;;;6279546;22;20038;-94
2022/05/30 21:08:38;;;;;;;1.95;1.80;;;;;;;;;;6279403;22;20007;-82
2022/05/30 21:11:05;;;;;;;2.40;2.13;;;;;;;;;;6252919;22;20003;-81
2022/05/30 21:13:31;;;;;;;3.40;2.10;;;;;;;;;;6279229;22;20004;-85
2022/05/30 21:15:59;;;;;;;4.78;1.73;;;;;;;;;;6278909;22;20006;-84
2022/05/30 21:18:37;;;;;;;1.80;1.60;;;;;;;;;;6279462;22;20004;-81
2022/05/30 21:21:03;;;;;;;2.20;1.80;;;;;;;;;;6282896;22;20370;-85
2022/05/30 21:23:30;;;;;;;1.98;1.50;;;;;;;;;;6278986;22;20000;-80
2022/05/30 21:25:57;;;;;;;3.33;1.75;;;;;;;;;;6278983;22;20003;-85
2022/05/30 21:28:23;;;;;;;1.63;1.45;;;;;;;;;;6279024;22;20408;-81
2022/05/30 21:30:51;;;;;;;3.40;2.10;;;;;;;;;;6279801;22;20006;-86
2022/05/30 21:33:27;;;;;;;2.58;1.95;;;;;;;;;;6280170;22;19999;-86
2022/05/30 21:35:55;;;;;;;4.18;2.17;;;;;;;;;;6279935;22;20003;-86
2022/05/30 21:38:21;;;;;;;2.87;2.40;;;;;;;;;;6279438;22;20312;-84
2022/05/30 21:40:47;;;;;;;4.38;2.00;;;;;;;;;;6278461;22;20038;-82
2022/05/30 21:43:12;;;;;;;2.25;1.42;;;;;;;;;;6279238;22;20082;-81
2022/05/30 21:45:38;;;;;;;3.20;1.88;;;;;;;;;;6279273;22;20003;-81
2022/05/30 21:48:04;;;;;;;3.00;1.95;;;;;;;;;;6278723;22;20393;-84
2022/05/30 21:50:32;;;;;;;3.05;1.67;;;;;;;;;;6284109;22;20026;-84
2022/05/30 21:53:01;;;;;;;2.78;1.90;;;;;;;;;;6282023;22;20025;-85
2022/05/30 21:55:27;;;;;;;;;;;;;;;;;;6289992;22;20003;-84
2022/05/30 21:57:57;;;;;;;3.05;1.33;;;;;;;;;;6266413;22;19916;-78
2022/05/30 22:00:41;;;;;;;2.85;1.70;;;;;;;;;;6287171;22;20067;-84
